Airfield :
LOGIN :

Register | Disclaimer

   EN    FR    IT 

 










Legend :    VFR   Marginal VFR   IFR   Intensive IFR   Very Intensive IFR
Visi :
Ceiling :
>= 8 km
>= 3000ft
5 to 8 km
1000 to 3000 ft
1500m to 5 km
500 to 1000 ft
800 to 1500m
200 to 500 ft
< 800m
< 200 ft
Symbols :   Thunderstorms  Fog  Heavy snow  Heavy precipitations  Wind > 20 kt
SIGMETs :     Misc.  Thunderstorms  Icing  Turbulence  Mountain Waves  Volcanic Ashes






- Airport Elevation : 681 ft
- IATA code : OSL


ENGM - Oslo Gardermoen

CURRENT METAR :
  • 191320Z 17010KT 5000 2000SW -RA BR BKN002 03/03 Q1005 TEMPO 2500 -RA BR

EXPIRED METARs :
  • 191250Z 17006KT 6000 1200SW R19R/P2000N R01R/P2000N R19L/P2000N R01L/1200U -DZRA BCFG BKN003 03/03 Q1005 TEMPO 4000 -RA BR BKN005
  • 191220Z 17006KT 0900 0500S R19R/P2000N R01R/0800N R19L/1800U R01L/0550N -RA FG VV002 03/03 Q1005 TEMPO 2000 -RA BR
  • 191150Z VRB03KT 1200 R19R/1900D R01R/1400D R19L/1100U R01L/0700U -RA BCFG BKN002 04/04 Q1005 TEMPO 0800 FG
  • 191120Z VRB01KT 1200 R19R/1800D R01R/0750D R19L/0550D R01L/P2000N -DZRA PRFG BKN003 03/03 Q1005 TEMPO 0800 FG
  • 191050Z 05004KT 360V100 1800 R19R/P2000N R01R/1600U R19L/1200U R01L/P2000N -RA BCFG BKN003 04/04 Q1005 TEMPO 3000 -RA BR

TAF AMD TAF ENGM
Valid from the 19 at 13:00 until the 20 at 12:00 UTC


1913/2012 17008KT 6000 -RA SCT002 BKN005
TEMPO 1913/1924 0500 FG VV002
PROB40 2000/2012 0500 FZFG VV002



MET'MAP, your aeronautical weather chart ! - Copyright ORBIFLY December 2007 - Disclaimer

ORBIFLY MET'MAP TEAM :

Programming & Development : Alexandra Zaïnal
Concept & Development : Baudouin d'Aumeries
Co-Development & Prog : Marc-Olivier Méhu
Technical & hardware support : Manuel Goepfert

Contact : metmap@orbifly.com




SOURCES & CREDITS :

   NOAA